sensor_id;sensor_type;location;lat;lon;timestamp;pressure;altitude;pressure_sealevel;temperature;humidity
61474;BME280;53694;49.784;30.150;2023-02-01T00:01:38;98870.30;;;-0.98;100.00
61474;BME280;53694;49.784;30.150;2023-02-01T00:02:39;98890.27;;;-0.99;100.00
61474;BME280;53694;49.784;30.150;2023-02-01T00:03:41;98888.08;;;-0.97;100.00
61474;BME280;53694;49.784;30.150;2023-02-01T00:04:42;98875.48;;;-0.88;100.00
61474;BME280;53694;49.784;30.150;2023-02-01T00:05:44;98877.39;;;-0.66;100.00
61474;BME280;53694;49.784;30.150;2023-02-01T00:06:46;98874.16;;;-0.32;100.00
61474;BME280;53694;49.784;30.150;2023-02-01T00:07:48;98874.71;;;0.10;100.00
61474;BME280;53694;49.784;30.150;2023-02-01T00:08:54;98876.46;;;0.54;100.00
61474;BME280;53694;49.784;30.150;2023-02-01T00:09:56;98881.17;;;0.97;99.16
61474;BME280;53694;49.784;30.150;2023-02-01T00:11:09;98874.53;;;1.38;96.78
61474;BME280;53694;49.784;30.150;2023-02-01T00:12:11;98879.58;;;1.74;94.45
61474;BME280;53694;49.784;30.150;2023-02-01T00:13:13;98878.22;;;2.15;92.21
61474;BME280;53694;49.784;30.150;2023-02-01T00:14:14;98879.06;;;2.45;90.33
61474;BME280;53694;49.784;30.150;2023-02-01T00:15:16;98877.84;;;2.72;88.28
61474;BME280;53694;49.784;30.150;2023-02-01T00:16:20;98880.05;;;2.99;86.76
61474;BME280;53694;49.784;30.150;2023-02-01T00:17:23;98877.95;;;3.26;85.11
61474;BME280;53694;49.784;30.150;2023-02-01T00:18:24;98882.58;;;3.46;82.88
61474;BME280;53694;49.784;30.150;2023-02-01T00:19:26;98873.83;;;3.62;81.06
61474;BME280;53694;49.784;30.150;2023-02-01T00:20:27;98874.33;;;3.76;79.42
61474;BME280;53694;49.784;30.150;2023-02-01T00:21:30;98873.23;;;3.89;78.16
61474;BME280;53694;49.784;30.150;2023-02-01T00:22:32;98867.84;;;4.01;77.13
61474;BME280;53694;49.784;30.150;2023-02-01T00:23:35;98879.66;;;4.18;76.48
61474;BME280;53694;49.784;30.150;2023-02-01T00:24:37;98868.80;;;4.30;75.67
61474;BME280;53694;49.784;30.150;2023-02-01T00:25:38;98876.51;;;4.40;73.97
61474;BME280;53694;49.784;30.150;2023-02-01T00:26:42;98875.84;;;4.43;72.87
61474;BME280;53694;49.784;30.150;2023-02-01T00:27:48;98877.31;;;4.53;72.92
61474;BME280;53694;49.784;30.150;2023-02-01T00:28:50;98879.92;;;4.62;72.21
61474;BME280;53694;49.784;30.150;2023-02-01T00:29:54;98879.02;;;4.70;71.10
61474;BME280;53694;49.784;30.150;2023-02-01T00:30:58;98882.29;;;4.75;70.37
61474;BME280;53694;49.784;30.150;2023-02-01T00:31:59;98875.39;;;4.78;70.05
61474;BME280;53694;49.784;30.150;2023-02-01T00:33:01;98875.86;;;4.80;69.32
61474;BME280;53694;49.784;30.150;2023-02-01T00:34:03;98879.36;;;4.81;68.96
61474;BME280;53694;49.784;30.150;2023-02-01T00:35:06;98884.45;;;4.82;68.82
61474;BME280;53694;49.784;30.150;2023-02-01T00:36:09;98876.53;;;4.77;68.13
61474;BME280;53694;49.784;30.150;2023-02-01T00:37:10;98872.78;;;4.57;68.15
61474;BME280;53694;49.784;30.150;2023-02-01T00:38:12;98869.82;;;4.25;68.76
61474;BME280;53694;49.784;30.150;2023-02-01T00:39:14;98868.47;;;3.86;69.57
61474;BME280;53694;49.784;30.150;2023-02-01T00:40:16;98865.84;;;3.44;70.66
61474;BME280;53694;49.784;30.150;2023-02-01T00:41:19;98875.89;;;3.02;72.00
61474;BME280;53694;49.784;30.150;2023-02-01T00:42:21;98870.05;;;2.62;73.31
61474;BME280;53694;49.784;30.150;2023-02-01T00:43:23;98875.78;;;2.31;74.64
61474;BME280;53694;49.784;30.150;2023-02-01T00:44:24;98872.16;;;2.18;75.49
61474;BME280;53694;49.784;30.150;2023-02-01T00:45:26;98873.75;;;2.19;75.99
61474;BME280;53694;49.784;30.150;2023-02-01T00:46:28;98870.22;;;2.27;76.18
61474;BME280;53694;49.784;30.150;2023-02-01T00:47:29;98866.16;;;2.42;76.00
61474;BME280;53694;49.784;30.150;2023-02-01T00:48:31;98871.98;;;2.61;75.74
61474;BME280;53694;49.784;30.150;2023-02-01T00:49:33;98874.09;;;2.85;75.34
61474;BME280;53694;49.784;30.150;2023-02-01T00:50:34;98874.12;;;3.06;74.42
61474;BME280;53694;49.784;30.150;2023-02-01T00:51:36;98877.95;;;3.26;73.87
61474;BME280;53694;49.784;30.150;2023-02-01T00:52:37;98873.30;;;3.47;73.16
61474;BME280;53694;49.784;30.150;2023-02-01T00:53:39;98884.01;;;3.65;71.99
61474;BME280;53694;49.784;30.150;2023-02-01T00:54:41;98877.52;;;3.78;70.76
61474;BME280;53694;49.784;30.150;2023-02-01T00:55:47;98877.22;;;3.92;70.66
61474;BME280;53694;49.784;30.150;2023-02-01T00:56:49;98860.35;;;3.98;69.47
61474;BME280;53694;49.784;30.150;2023-02-01T00:57:51;98873.84;;;4.07;68.75
61474;BME280;53694;49.784;30.150;2023-02-01T00:58:52;98877.48;;;4.11;67.98
61474;BME280;53694;49.784;30.150;2023-02-01T00:59:54;98881.33;;;4.10;68.54
61474;BME280;53694;49.784;30.150;2023-02-01T01:01:11;98878.27;;;3.99;68.62
61474;BME280;53694;49.784;30.150;2023-02-01T01:02:13;98882.34;;;3.72;68.93
61474;BME280;53694;49.784;30.150;2023-02-01T01:03:14;98883.85;;;3.28;69.69
61474;BME280;53694;49.784;30.150;2023-02-01T01:04:15;98879.97;;;2.87;70.74
61474;BME280;53694;49.784;30.150;2023-02-01T01:05:17;98883.36;;;2.46;71.96
61474;BME280;53694;49.784;30.150;2023-02-01T01:06:27;98876.33;;;2.07;73.33
61474;BME280;53694;49.784;30.150;2023-02-01T01:07:29;98882.14;;;1.79;74.60
61474;BME280;53694;49.784;30.150;2023-02-01T01:08:31;98877.70;;;1.66;75.43
61474;BME280;53694;49.784;30.150;2023-02-01T01:09:33;98871.33;;;1.70;75.82
61474;BME280;53694;49.784;30.150;2023-02-01T01:10:34;98881.64;;;1.86;75.92
61474;BME280;53694;49.784;30.150;2023-02-01T01:11:38;98875.38;;;2.03;75.65
61474;BME280;53694;49.784;30.150;2023-02-01T01:12:40;98874.36;;;2.24;75.19
61474;BME280;53694;49.784;30.150;2023-02-01T01:13:42;98877.94;;;2.46;74.63
61474;BME280;53694;49.784;30.150;2023-02-01T01:14:43;98868.77;;;2.68;73.90
61474;BME280;53694;49.784;30.150;2023-02-01T01:15:45;98876.60;;;2.90;72.98
61474;BME280;53694;49.784;30.150;2023-02-01T01:16:46;98878.07;;;3.09;72.11
61474;BME280;53694;49.784;30.150;2023-02-01T01:17:48;98880.20;;;3.24;71.42
61474;BME280;53694;49.784;30.150;2023-02-01T01:18:50;98880.73;;;3.38;70.47
61474;BME280;53694;49.784;30.150;2023-02-01T01:19:51;98874.91;;;3.48;69.83
61474;BME280;53694;49.784;30.150;2023-02-01T01:20:53;98879.92;;;3.59;69.60
61474;BME280;53694;49.784;30.150;2023-02-01T01:21:55;98883.34;;;3.68;69.00
61474;BME280;53694;49.784;30.150;2023-02-01T01:22:56;98882.22;;;3.69;68.72
61474;BME280;53694;49.784;30.150;2023-02-01T01:23:58;98873.56;;;3.55;68.40
61474;BME280;53694;49.784;30.150;2023-02-01T01:24:59;98884.95;;;3.27;68.86
61474;BME280;53694;49.784;30.150;2023-02-01T01:26:07;98877.54;;;2.94;69.57
61474;BME280;53694;49.784;30.150;2023-02-01T01:27:09;98872.81;;;2.53;70.61
61474;BME280;53694;49.784;30.150;2023-02-01T01:28:10;98879.53;;;2.09;72.02
61474;BME280;53694;49.784;30.150;2023-02-01T01:29:12;98876.41;;;1.72;73.40
61474;BME280;53694;49.784;30.150;2023-02-01T01:30:14;98876.73;;;1.44;74.61
61474;BME280;53694;49.784;30.150;2023-02-01T01:31:18;98873.91;;;1.32;75.53
61474;BME280;53694;49.784;30.150;2023-02-01T01:32:20;98877.23;;;1.38;76.00
61474;BME280;53694;49.784;30.150;2023-02-01T01:33:21;98878.64;;;1.53;75.91
61474;BME280;53694;49.784;30.150;2023-02-01T01:34:23;98874.03;;;1.70;75.79
61474;BME280;53694;49.784;30.150;2023-02-01T01:35:24;98870.63;;;1.91;75.37
61474;BME280;53694;49.784;30.150;2023-02-01T01:36:27;98873.14;;;2.13;74.78
61474;BME280;53694;49.784;30.150;2023-02-01T01:37:29;98873.23;;;2.34;74.03
61474;BME280;53694;49.784;30.150;2023-02-01T01:38:30;98870.59;;;2.55;73.34
61474;BME280;53694;49.784;30.150;2023-02-01T01:39:32;98869.70;;;2.72;72.63
61474;BME280;53694;49.784;30.150;2023-02-01T01:40:34;98878.19;;;2.91;72.16
61474;BME280;53694;49.784;30.150;2023-02-01T01:41:35;98870.92;;;3.04;71.43
61474;BME280;53694;49.784;30.150;2023-02-01T01:42:42;98866.84;;;3.19;70.87
61474;BME280;53694;49.784;30.150;2023-02-01T01:43:56;98879.66;;;3.31;70.29
61474;BME280;53694;49.784;30.150;2023-02-01T01:45:07;98869.34;;;3.45;69.94
61474;BME280;53694;49.784;30.150;2023-02-01T01:46:09;98862.50;;;3.60;69.27
61474;BME280;53694;49.784;30.150;2023-02-01T01:47:11;98862.20;;;3.73;68.65
61474;BME280;53694;49.784;30.150;2023-02-01T01:48:24;98866.18;;;3.76;68.08
61474;BME280;53694;49.784;30.150;2023-02-01T01:49:25;98857.98;;;3.64;68.12
61474;BME280;53694;49.784;30.150;2023-02-01T01:50:39;98864.44;;;3.38;68.44
61474;BME280;53694;49.784;30.150;2023-02-01T01:51:51;98860.08;;;3.04;69.17
61474;BME280;53694;49.784;30.150;2023-02-01T01:52:46;98863.05;;;2.61;70.21
61474;BME280;53694;49.784;30.150;2023-02-01T01:54:02;98853.20;;;2.18;71.50
61474;BME280;53694;49.784;30.150;2023-02-01T01:55:00;98853.16;;;1.80;73.02
61474;BME280;53694;49.784;30.150;2023-02-01T01:56:03;98857.17;;;1.47;74.37
61474;BME280;53694;49.784;30.150;2023-02-01T01:57:32;98856.05;;;1.40;75.27
61474;BME280;53694;49.784;30.150;2023-02-01T01:58:32;98851.41;;;1.75;75.58
61474;BME280;53694;49.784;30.150;2023-02-01T01:59:36;98851.41;;;1.75;75.58
61474;BME280;53694;49.784;30.150;2023-02-01T02:00:39;98853.96;;;2.27;74.40
61474;BME280;53694;49.784;30.150;2023-02-01T02:01:42;98853.96;;;2.27;74.40
61474;BME280;53694;49.784;30.150;2023-02-01T02:02:46;98853.50;;;2.55;73.59
61474;BME280;53694;49.784;30.150;2023-02-01T02:03:49;98853.38;;;2.81;72.83
61474;BME280;53694;49.784;30.150;2023-02-01T02:04:51;98850.80;;;3.05;71.70
61474;BME280;53694;49.784;30.150;2023-02-01T02:05:55;98848.57;;;3.28;71.00
61474;BME280;53694;49.784;30.150;2023-02-01T02:07:17;98843.92;;;3.49;70.49
61474;BME280;53694;49.784;30.150;2023-02-01T02:08:20;98846.91;;;3.69;69.44
61474;BME280;53694;49.784;30.150;2023-02-01T02:09:21;98844.63;;;3.92;68.18
61474;BME280;53694;49.784;30.150;2023-02-01T02:10:23;98843.16;;;4.07;67.83
61474;BME280;53694;49.784;30.150;2023-02-01T02:11:25;98841.61;;;4.18;67.42
61474;BME280;53694;49.784;30.150;2023-02-01T02:12:27;98834.47;;;4.13;66.78
61474;BME280;53694;49.784;30.150;2023-02-01T02:13:35;98833.88;;;3.95;66.85
61474;BME280;53694;49.784;30.150;2023-02-01T02:14:37;98837.66;;;3.70;67.14
61474;BME280;53694;49.784;30.150;2023-02-01T02:15:45;98841.36;;;3.32;67.74
61474;BME280;53694;49.784;30.150;2023-02-01T02:17:57;98839.16;;;2.54;69.55
61474;BME280;53694;49.784;30.150;2023-02-01T02:23:47;98833.96;;;1.12;75.61
61474;BME280;53694;49.784;30.150;2023-02-01T02:26:38;98838.55;;;1.55;75.88
61474;BME280;53694;49.784;30.150;2023-02-01T02:29:21;98835.89;;;2.40;73.57
61474;BME280;53694;49.784;30.150;2023-02-01T02:34:33;98842.83;;;3.63;68.72
61474;BME280;53694;49.784;30.150;2023-02-01T02:37:36;98838.17;;;3.96;67.63
61474;BME280;53694;49.784;30.150;2023-02-01T02:39:00;98835.42;;;3.84;67.52
61474;BME280;53694;49.784;30.150;2023-02-01T02:45:02;98827.69;;;1.72;73.66
61474;BME280;53694;49.784;30.150;2023-02-01T02:47:25;98822.86;;;1.86;74.03
61474;BME280;53694;49.784;30.150;2023-02-01T02:48:36;98832.51;;;2.13;73.77
61474;BME280;53694;49.784;30.150;2023-02-01T02:51:08;98824.41;;;2.72;72.28
61474;BME280;53694;49.784;30.150;2023-02-01T02:52:13;98834.02;;;3.12;70.79
61474;BME280;53694;49.784;30.150;2023-02-01T02:53:22;98835.72;;;3.37;69.78
61474;BME280;53694;49.784;30.150;2023-02-01T02:54:28;98832.63;;;3.60;68.98
61474;BME280;53694;49.784;30.150;2023-02-01T02:55:30;98826.02;;;3.82;68.42
61474;BME280;53694;49.784;30.150;2023-02-01T02:56:35;98822.89;;;3.92;68.02
61474;BME280;53694;49.784;30.150;2023-02-01T02:57:38;98820.84;;;3.89;67.78
61474;BME280;53694;49.784;30.150;2023-02-01T02:58:42;98833.15;;;3.74;67.92
61474;BME280;53694;49.784;30.150;2023-02-01T02:59:45;98820.63;;;3.48;68.15
61474;BME280;53694;49.784;30.150;2023-02-01T03:00:50;98824.22;;;3.19;68.64
61474;BME280;53694;49.784;30.150;2023-02-01T03:01:53;98826.86;;;2.86;69.40
61474;BME280;53694;49.784;30.150;2023-02-01T03:02:55;98823.55;;;2.21;71.33
61474;BME280;53694;49.784;30.150;2023-02-01T03:03:57;98823.55;;;2.21;71.33
61474;BME280;53694;49.784;30.150;2023-02-01T03:04:58;98827.95;;;1.96;72.34
61474;BME280;53694;49.784;30.150;2023-02-01T03:06:00;98821.64;;;1.75;73.17
61474;BME280;53694;49.784;30.150;2023-02-01T03:08:36;98820.33;;;1.81;74.12
61474;BME280;53694;49.784;30.150;2023-02-01T03:09:40;98823.59;;;2.13;73.76
61474;BME280;53694;49.784;30.150;2023-02-01T03:11:06;98825.05;;;2.40;73.21
61474;BME280;53694;49.784;30.150;2023-02-01T03:12:11;98821.38;;;3.16;71.08
61474;BME280;53694;49.784;30.150;2023-02-01T03:13:34;98821.38;;;3.16;71.08
61474;BME280;53694;49.784;30.150;2023-02-01T03:14:36;98823.07;;;3.41;69.74
61474;BME280;53694;49.784;30.150;2023-02-01T03:16:58;98811.90;;;3.88;68.09
61474;BME280;53694;49.784;30.150;2023-02-01T03:18:00;98817.33;;;3.88;67.35
61474;BME280;53694;49.784;30.150;2023-02-01T03:19:27;98817.33;;;3.88;67.35
61474;BME280;53694;49.784;30.150;2023-02-01T03:20:30;98822.03;;;3.67;67.44
61474;BME280;53694;49.784;30.150;2023-02-01T03:21:41;98822.44;;;3.23;68.12
61474;BME280;53694;49.784;30.150;2023-02-01T03:22:43;98828.09;;;2.89;69.21
61474;BME280;53694;49.784;30.150;2023-02-01T03:23:47;98821.17;;;2.49;70.25
61474;BME280;53694;49.784;30.150;2023-02-01T03:24:52;98819.75;;;2.14;71.58
61474;BME280;53694;49.784;30.150;2023-02-01T03:25:55;98817.95;;;1.80;72.79
61474;BME280;53694;49.784;30.150;2023-02-01T03:27:20;98819.77;;;1.58;74.01
61474;BME280;53694;49.784;30.150;2023-02-01T03:28:08;98800.99;;;1.53;74.69
61474;BME280;53694;49.784;30.150;2023-02-01T03:29:18;98818.46;;;1.64;75.01
61474;BME280;53694;49.784;30.150;2023-02-01T03:30:22;98820.64;;;1.88;74.83
61474;BME280;53694;49.784;30.150;2023-02-01T03:31:24;98820.52;;;2.53;74.02
61474;BME280;53694;49.784;30.150;2023-02-01T03:32:26;98820.52;;;2.53;74.02
61474;BME280;53694;49.784;30.150;2023-02-01T03:33:28;98818.44;;;2.79;72.46
61474;BME280;53694;49.784;30.150;2023-02-01T03:34:31;98823.67;;;3.05;71.58
61474;BME280;53694;49.784;30.150;2023-02-01T03:35:46;98816.01;;;3.28;70.52
61474;BME280;53694;49.784;30.150;2023-02-01T03:36:55;98811.34;;;3.49;69.83
61474;BME280;53694;49.784;30.150;2023-02-01T03:38:06;98822.73;;;3.76;69.25
61474;BME280;53694;49.784;30.150;2023-02-01T03:39:38;98821.21;;;3.99;68.64
61474;BME280;53694;49.784;30.150;2023-02-01T03:40:18;98822.81;;;4.13;67.70
61474;BME280;53694;49.784;30.150;2023-02-01T03:42:28;98823.56;;;3.56;67.84
61474;BME280;53694;49.784;30.150;2023-02-01T03:46:05;98820.22;;;2.75;69.79
61474;BME280;53694;49.784;30.150;2023-02-01T03:48:13;98818.33;;;2.08;72.00
61474;BME280;53694;49.784;30.150;2023-02-01T03:49:32;98821.64;;;1.75;73.16
61474;BME280;53694;49.784;30.150;2023-02-01T03:50:35;98814.81;;;1.60;75.15
61474;BME280;53694;49.784;30.150;2023-02-01T05:56:25;98811.09;;;-1.26;100.00
61474;BME280;53694;49.784;30.150;2023-02-01T05:57:26;98813.91;;;-1.31;100.00
61474;BME280;53694;49.784;30.150;2023-02-01T05:58:28;98805.70;;;-1.26;100.00
61474;BME280;53694;49.784;30.150;2023-02-01T05:59:30;98808.67;;;-1.14;100.00
61474;BME280;53694;49.784;30.150;2023-02-01T06:00:31;98807.77;;;-0.87;100.00
61474;BME280;53694;49.784;30.150;2023-02-01T06:01:33;98809.59;;;-0.51;100.00
61474;BME280;53694;49.784;30.150;2023-02-01T06:02:34;98804.45;;;-0.08;100.00
61474;BME280;53694;49.784;30.150;2023-02-01T06:03:36;98809.05;;;0.40;100.00
61474;BME280;53694;49.784;30.150;2023-02-01T06:04:38;98807.08;;;0.89;99.24
61474;BME280;53694;49.784;30.150;2023-02-01T06:05:40;98802.91;;;1.35;96.67
61474;BME280;53694;49.784;30.150;2023-02-01T06:06:41;98808.25;;;1.79;93.94
61474;BME280;53694;49.784;30.150;2023-02-01T06:07:43;98810.01;;;2.21;92.43
61474;BME280;53694;49.784;30.150;2023-02-01T06:08:45;98809.63;;;2.61;90.32
61474;BME280;53694;49.784;30.150;2023-02-01T06:09:46;98818.80;;;2.98;87.08
61474;BME280;53694;49.784;30.150;2023-02-01T06:10:48;98819.95;;;3.31;83.91
61474;BME280;53694;49.784;30.150;2023-02-01T06:11:50;98811.57;;;3.57;81.95
61474;BME280;53694;49.784;30.150;2023-02-01T06:12:51;98806.69;;;3.83;80.64
61474;BME280;53694;49.784;30.150;2023-02-01T06:13:53;98808.54;;;4.04;78.06
61474;BME280;53694;49.784;30.150;2023-02-01T06:14:54;98813.41;;;4.22;76.39
61474;BME280;53694;49.784;30.150;2023-02-01T06:15:56;98809.68;;;4.39;75.45
61474;BME280;53694;49.784;30.150;2023-02-01T06:16:58;98804.01;;;4.57;73.36
61474;BME280;53694;49.784;30.150;2023-02-01T06:17:59;98801.95;;;4.66;71.39
61474;BME280;53694;49.784;30.150;2023-02-01T06:20:10;98812.58;;;4.83;70.14
61474;BME280;53694;49.784;30.150;2023-02-01T06:21:12;98806.22;;;4.91;68.73
61474;BME280;53694;49.784;30.150;2023-02-01T06:22:14;98812.20;;;4.97;68.00
61474;BME280;53694;49.784;30.150;2023-02-01T06:23:15;98804.62;;;5.03;67.35
61474;BME280;53694;49.784;30.150;2023-02-01T06:24:17;98813.56;;;5.03;67.55
61474;BME280;53694;49.784;30.150;2023-02-01T06:25:18;98811.66;;;4.91;67.36
61474;BME280;53694;49.784;30.150;2023-02-01T06:26:20;98810.79;;;4.63;67.35
61474;BME280;53694;49.784;30.150;2023-02-01T06:27:22;98800.73;;;4.26;67.77
61474;BME280;53694;49.784;30.150;2023-02-01T06:28:24;98804.88;;;3.87;68.94
61474;BME280;53694;49.784;30.150;2023-02-01T06:29:25;98807.84;;;3.49;70.20
61474;BME280;53694;49.784;30.150;2023-02-01T06:30:27;98803.03;;;3.13;71.58
61474;BME280;53694;49.784;30.150;2023-02-01T06:31:28;98799.59;;;2.83;72.93
61474;BME280;53694;49.784;30.150;2023-02-01T06:32:30;98800.70;;;2.61;74.06
61474;BME280;53694;49.784;30.150;2023-02-01T06:33:33;98800.11;;;2.55;74.50
61474;BME280;53694;49.784;30.150;2023-02-01T06:34:34;98802.77;;;2.64;74.73
61474;BME280;53694;49.784;30.150;2023-02-01T06:35:36;98797.88;;;2.78;74.56
61474;BME280;53694;49.784;30.150;2023-02-01T06:36:37;98798.67;;;2.99;74.50
61474;BME280;53694;49.784;30.150;2023-02-01T06:37:39;98798.94;;;3.28;73.69
61474;BME280;53694;49.784;30.150;2023-02-01T06:38:40;98792.13;;;3.55;72.74
61474;BME280;53694;49.784;30.150;2023-02-01T06:39:42;98787.67;;;3.83;72.03
61474;BME280;53694;49.784;30.150;2023-02-01T06:40:43;98794.03;;;4.12;71.33
61474;BME280;53694;49.784;30.150;2023-02-01T06:41:48;98792.47;;;4.35;70.20
61474;BME280;53694;49.784;30.150;2023-02-01T06:42:50;98801.06;;;4.49;67.57
61474;BME280;53694;49.784;30.150;2023-02-01T06:43:52;98788.71;;;4.64;67.50
61474;BME280;53694;49.784;30.150;2023-02-01T06:44:53;98793.34;;;4.76;67.05
61474;BME280;53694;49.784;30.150;2023-02-01T06:46:04;98795.36;;;4.79;66.21
61474;BME280;53694;49.784;30.150;2023-02-01T06:47:03;98788.12;;;4.71;66.35
61474;BME280;53694;49.784;30.150;2023-02-01T06:48:05;98788.17;;;4.46;67.14
61474;BME280;53694;49.784;30.150;2023-02-01T06:49:07;98787.38;;;4.21;67.62
61474;BME280;53694;49.784;30.150;2023-02-01T06:50:10;98784.51;;;3.93;68.93
61474;BME280;53694;49.784;30.150;2023-02-01T06:51:23;98784.02;;;3.67;69.88
61474;BME280;53694;49.784;30.150;2023-02-01T06:52:24;98778.85;;;3.41;70.48
61474;BME280;53694;49.784;30.150;2023-02-01T06:53:26;98781.54;;;3.08;71.27
61474;BME280;53694;49.784;30.150;2023-02-01T06:54:27;98789.88;;;2.82;72.20
61474;BME280;53694;49.784;30.150;2023-02-01T06:55:29;98785.38;;;2.65;72.92
61474;BME280;53694;49.784;30.150;2023-02-01T06:56:31;98783.31;;;2.62;73.53
61474;BME280;53694;49.784;30.150;2023-02-01T06:57:32;98783.73;;;2.72;73.57
61474;BME280;53694;49.784;30.150;2023-02-01T06:58:34;98788.03;;;2.94;73.27
61474;BME280;53694;49.784;30.150;2023-02-01T06:59:35;98779.20;;;3.18;72.71
61474;BME280;53694;49.784;30.150;2023-02-01T07:00:37;98784.06;;;3.46;72.00
61474;BME280;53694;49.784;30.150;2023-02-01T07:01:39;98783.35;;;3.70;70.86
61474;BME280;53694;49.784;30.150;2023-02-01T07:02:41;98779.42;;;3.92;69.77
61474;BME280;53694;49.784;30.150;2023-02-01T07:03:42;98782.48;;;4.15;68.94
61474;BME280;53694;49.784;30.150;2023-02-01T07:04:44;98782.73;;;4.34;67.82
61474;BME280;53694;49.784;30.150;2023-02-01T07:05:45;98775.69;;;4.45;67.60
61474;BME280;53694;49.784;30.150;2023-02-01T07:06:46;98780.33;;;4.45;67.15
61474;BME280;53694;49.784;30.150;2023-02-01T07:07:48;98780.57;;;4.28;66.88
61474;BME280;53694;49.784;30.150;2023-02-01T07:08:52;98780.11;;;4.01;67.53
61474;BME280;53694;49.784;30.150;2023-02-01T07:09:53;98775.65;;;3.72;68.52
61474;BME280;53694;49.784;30.150;2023-02-01T07:10:55;98780.78;;;3.40;68.93
61474;BME280;53694;49.784;30.150;2023-02-01T07:11:57;98778.04;;;3.07;70.10
61474;BME280;53694;49.784;30.150;2023-02-01T07:12:59;98769.19;;;2.77;71.34
61474;BME280;53694;49.784;30.150;2023-02-01T07:14:00;98779.72;;;2.49;72.27
61474;BME280;53694;49.784;30.150;2023-02-01T07:15:03;98781.27;;;2.29;73.43
61474;BME280;53694;49.784;30.150;2023-02-01T07:16:09;98776.52;;;2.26;74.01
61474;BME280;53694;49.784;30.150;2023-02-01T07:17:10;98780.56;;;2.41;74.23
61474;BME280;53694;49.784;30.150;2023-02-01T07:18:13;98782.46;;;2.70;74.01
61474;BME280;53694;49.784;30.150;2023-02-01T07:19:15;98777.42;;;3.01;72.92
61474;BME280;53694;49.784;30.150;2023-02-01T07:20:17;98777.02;;;3.33;72.33
61474;BME280;53694;49.784;30.150;2023-02-01T07:21:19;98779.59;;;3.62;71.12
61474;BME280;53694;49.784;30.150;2023-02-01T07:22:21;98780.87;;;3.89;69.98
61474;BME280;53694;49.784;30.150;2023-02-01T07:23:23;98777.53;;;4.17;68.86
61474;BME280;53694;49.784;30.150;2023-02-01T07:24:25;98769.58;;;4.36;67.73
61474;BME280;53694;49.784;30.150;2023-02-01T07:25:26;98770.04;;;4.50;66.73
61474;BME280;53694;49.784;30.150;2023-02-01T07:26:28;98775.02;;;4.48;66.66
61474;BME280;53694;49.784;30.150;2023-02-01T07:27:29;98765.52;;;4.30;66.31
61474;BME280;53694;49.784;30.150;2023-02-01T07:28:33;98772.08;;;4.05;66.94
61474;BME280;53694;49.784;30.150;2023-02-01T07:29:35;98764.13;;;3.75;67.59
61474;BME280;53694;49.784;30.150;2023-02-01T07:30:37;98761.88;;;3.44;68.61
61474;BME280;53694;49.784;30.150;2023-02-01T07:31:39;98765.05;;;3.13;69.50
61474;BME280;53694;49.784;30.150;2023-02-01T07:32:40;98762.77;;;2.82;70.57
61474;BME280;53694;49.784;30.150;2023-02-01T07:33:42;98772.19;;;2.55;71.95
61474;BME280;53694;49.784;30.150;2023-02-01T07:34:44;98769.78;;;2.32;73.04
61474;BME280;53694;49.784;30.150;2023-02-01T07:35:46;98766.97;;;2.20;74.03
61474;BME280;53694;49.784;30.150;2023-02-01T07:36:48;98771.75;;;2.23;74.64
61474;BME280;53694;49.784;30.150;2023-02-01T07:37:49;98770.86;;;2.40;74.31
61474;BME280;53694;49.784;30.150;2023-02-01T07:38:51;98785.38;;;2.65;73.79
61474;BME280;53694;49.784;30.150;2023-02-01T07:39:52;98782.75;;;2.98;73.22
61474;BME280;53694;49.784;30.150;2023-02-01T07:40:58;98773.03;;;3.30;72.25
61474;BME280;53694;49.784;30.150;2023-02-01T07:42:00;98784.23;;;3.62;70.82
61474;BME280;53694;49.784;30.150;2023-02-01T07:43:02;98779.55;;;3.95;69.24
61474;BME280;53694;49.784;30.150;2023-02-01T07:44:03;98773.31;;;4.19;67.97
61474;BME280;53694;49.784;30.150;2023-02-01T07:45:06;98774.11;;;4.44;67.35
61474;BME280;53694;49.784;30.150;2023-02-01T07:46:10;98776.14;;;4.60;66.69
61474;BME280;53694;49.784;30.150;2023-02-01T07:47:12;98781.47;;;4.56;65.49
61474;BME280;53694;49.784;30.150;2023-02-01T07:48:13;98783.17;;;4.36;65.69
61474;BME280;53694;49.784;30.150;2023-02-01T07:49:15;98787.69;;;4.08;66.11
61474;BME280;53694;49.784;30.150;2023-02-01T07:50:17;98773.84;;;3.76;67.03
61474;BME280;53694;49.784;30.150;2023-02-01T07:51:18;98780.69;;;3.49;68.53
61474;BME280;53694;49.784;30.150;2023-02-01T07:52:20;98778.67;;;3.25;69.87
61474;BME280;53694;49.784;30.150;2023-02-01T07:53:21;98776.33;;;3.03;70.71
61474;BME280;53694;49.784;30.150;2023-02-01T07:54:23;98779.03;;;2.82;71.28
61474;BME280;53694;49.784;30.150;2023-02-01T07:55:24;98772.47;;;2.62;72.03
61474;BME280;53694;49.784;30.150;2023-02-01T07:56:26;98767.44;;;2.52;72.66
61474;BME280;53694;49.784;30.150;2023-02-01T07:57:27;98769.95;;;2.57;72.93
61474;BME280;53694;49.784;30.150;2023-02-01T07:58:29;98774.47;;;2.73;72.71
61474;BME280;53694;49.784;30.150;2023-02-01T07:59:31;98762.76;;;3.03;72.01
61474;BME280;53694;49.784;30.150;2023-02-01T08:00:32;98765.02;;;3.34;71.08
61474;BME280;53694;49.784;30.150;2023-02-01T08:01:34;98762.52;;;3.62;70.05
61474;BME280;53694;49.784;30.150;2023-02-01T08:02:36;98758.48;;;3.92;69.12
61474;BME280;53694;49.784;30.150;2023-02-01T08:03:37;98768.47;;;4.25;68.06
61474;BME280;53694;49.784;30.150;2023-02-01T08:04:39;98770.25;;;4.45;66.50
61474;BME280;53694;49.784;30.150;2023-02-01T08:05:41;98757.54;;;4.62;65.88
61474;BME280;53694;49.784;30.150;2023-02-01T08:06:42;98773.86;;;4.62;64.69
61474;BME280;53694;49.784;30.150;2023-02-01T08:07:44;98767.44;;;4.42;64.44
61474;BME280;53694;49.784;30.150;2023-02-01T08:08:48;98766.19;;;4.15;65.28
61474;BME280;53694;49.784;30.150;2023-02-01T08:09:50;98768.89;;;3.78;66.04
61474;BME280;53694;49.784;30.150;2023-02-01T08:11:00;98749.56;;;3.46;67.51
61474;BME280;53694;49.784;30.150;2023-02-01T08:12:02;98760.68;;;3.20;68.72
61474;BME280;53694;49.784;30.150;2023-02-01T08:13:03;98755.48;;;2.94;69.90